Corning, AR

4:16 AM CST on December 14, 2017 (GMT -0600)
Corning

Weather History for K4M9 - November, 2012

Change the Weather History Date:

Thursday, November 22, 2012

  Actual Average (KARG) Record (KARG)
Temperature  
Mean Temperature 50 °F -  
Max Temperature 64 °F 54 °F 71 °F (1999)
Min Temperature 35 °F 38 °F 23 °F (2008)
Degree Days  
Heating Degree Days 16    
Moisture  
Dew Point 45 °F    
Average Humidity 81    
Maximum Humidity 100    
Minimum Humidity 59    
Precipitation  
Precipitation 0.01 in - - ()
Sea Level Pressure  
Sea Level Pressure 30.14 in    
Wind  
Wind Speed 6 mph (SSW)    
Max Wind Speed 18 mph    
Max Gust Speed 25 mph    
Visibility 6 miles    
Events Fog , Rain    
Averages and records for this station are not official NWS values.
T = Trace of Precipitation, MM = Missing Value Source: NWS Daily Summary

Daily Weather History Graph

Daily Weather History Graph

Search for Another Location

Airport or City:

Trip Planner

Search our weather history database for the weather conditions in past years. The results will help you decide how hot, cold, wet, or windy it might be!

Date:

Astronomy

Nov. 22, 2012 Rise Set
Actual Time 6:47 AM CST 4:50 PM CST
Civil Twilight 6:19 AM CST 5:17 PM CST
Nautical Twilight 5:48 AM CST 5:49 PM CST
Astronomical Twilight 5:17 AM CST 6:20 PM CST
Moon 1:28 PM CST (11/22) 1:16 AM CST (11/22)
Length of Visible Light 10h 58m
Length of Day
10h 02m
Waxing Gibbous, 71% of the Moon is Illuminated
Nov 22
Waxing Gibbous
Nov 28
Full
Dec 6
Last Quarter
Dec 13
New
Dec 19
First Quarter

Hourly Weather History & Observations

Time (CST) Temp. Windchill Dew Point Humidity Pressure Visibility Wind Dir Wind Speed Gust Speed Precip Events Conditions
12:15 AM 42.8 °F 40.1 °F 41.0 °F 93% 30.19 in 1.0 mi SSE 4.6 mph - N/A   Mist
12:35 AM 42.8 °F - 41.0 °F 93% 30.19 in 0.8 mi Calm Calm - N/A   Mist
12:55 AM 39.2 °F - 39.2 °F 100% 30.19 in 0.5 mi Calm Calm - N/A Fog Fog
1:15 AM 41.0 °F - 41.0 °F 100% 30.19 in 4.0 mi Calm Calm - N/A   Mist
1:35 AM 39.2 °F - 39.2 °F 100% 30.19 in 0.2 mi Calm Calm - N/A Fog Fog
1:55 AM 39.2 °F - 39.2 °F 100% 30.19 in 0.2 mi Calm Calm - N/A Fog Fog
2:15 AM 39.2 °F 37.0 °F 39.2 °F 100% 30.19 in 0.2 mi NW 3.5 mph - N/A Fog Fog
2:55 AM 37.4 °F 34.9 °F 37.4 °F 100% 30.19 in 0.2 mi North 3.5 mph - N/A Fog Fog
3:15 AM 37.4 °F - 37.4 °F 100% 30.19 in 0.2 mi Calm Calm - N/A Fog Fog
3:35 AM 37.4 °F 33.8 °F 37.4 °F 100% 30.19 in 0.2 mi NE 4.6 mph - N/A Fog Fog
3:55 AM 37.4 °F - 37.4 °F 100% 30.19 in 0.2 mi Calm Calm - N/A Fog Fog
4:15 AM 37.4 °F - 37.4 °F 100% 30.19 in 0.2 mi Calm Calm - N/A Fog Fog
4:35 AM 37.4 °F - 37.4 °F 100% 30.18 in 0.2 mi Calm Calm - N/A Fog Fog
4:55 AM 37.4 °F - 37.4 °F 100% 30.19 in 0.2 mi Calm Calm - N/A Fog Fog
5:15 AM 35.6 °F - 35.6 °F 100% 30.18 in 0.2 mi Calm Calm - N/A Fog Fog
5:35 AM 35.6 °F - 35.6 °F 100% 30.19 in 0.2 mi Calm Calm - N/A Fog Fog
5:55 AM 35.6 °F - 35.6 °F 100% 30.19 in 0.2 mi Calm Calm - N/A Fog Fog
6:15 AM 35.6 °F - 35.6 °F 100% 30.19 in 0.2 mi Calm Calm - N/A Fog Fog
6:35 AM 35.6 °F - 35.6 °F 100% 30.19 in 0.2 mi Calm Calm - N/A Fog Fog
6:55 AM 35.6 °F 32.8 °F 35.6 °F 100% 30.18 in 0.2 mi NE 3.5 mph - N/A Fog Fog
7:15 AM 35.6 °F - 35.6 °F 100% 30.18 in 0.2 mi Calm Calm - N/A Fog Fog
7:35 AM 37.4 °F - 37.4 °F 100% 30.19 in 0.2 mi Calm Calm - N/A Fog Fog
7:55 AM 37.4 °F - 37.4 °F 100% 30.19 in 0.2 mi Calm Calm - N/A Fog Fog
8:15 AM 39.2 °F - 39.2 °F 100% 30.18 in 0.2 mi Calm Calm - N/A Fog Fog
8:35 AM 41.0 °F - 41.0 °F 100% 30.18 in 0.2 mi Calm Calm - N/A Fog Fog
8:55 AM 44.6 °F 43.1 °F 44.6 °F 100% 30.18 in 2.5 mi South 3.5 mph - N/A   Mist
9:15 AM 48.2 °F - 48.2 °F 100% 30.18 in 4.0 mi SSW 6.9 mph - N/A   Mist
9:35 AM 51.8 °F - 51.8 °F 100% 30.19 in 5.0 mi SSW 9.2 mph - N/A Rain Light Rain
9:55 AM 57.2 °F - 50.0 °F 77% 30.19 in 6.0 mi South 9.2 mph - N/A Rain Light Rain
10:15 AM 59.0 °F - 50.0 °F 72% 30.18 in 8.0 mi SSW 12.7 mph - N/A Rain Light Rain
10:35 AM 60.8 °F - 50.0 °F 68% 30.18 in 9.0 mi SSW 17.3 mph 20.7 mph N/A   Unknown
10:55 AM 60.8 °F - 50.0 °F 68% 30.18 in 8.0 mi SSW 16.1 mph - N/A   Unknown
11:15 AM 60.8 °F - 50.0 °F 68% 30.17 in 9.0 mi SW 17.3 mph - N/A   Unknown
11:35 AM 60.8 °F - 50.0 °F 68% 30.15 in 9.0 mi SSW 13.8 mph 19.6 mph N/A   Unknown
11:55 AM 62.6 °F - 50.0 °F 63% 30.13 in 9.0 mi SSW 17.3 mph - N/A   Unknown
12:15 PM 64.4 °F - 50.0 °F 59% 30.12 in 10.0 mi SSW 18.4 mph - N/A   Unknown
12:35 PM 64.4 °F - 50.0 °F 59% 30.11 in 10.0 mi SSW 17.3 mph 23.0 mph N/A   Unknown
12:55 PM 62.6 °F - 48.2 °F 59% 30.10 in 10.0 mi SSW 18.4 mph - N/A   Unknown
1:15 PM 62.6 °F - 50.0 °F 63% 30.10 in 10.0 mi SSW 17.3 mph - N/A   Unknown
1:35 PM 62.6 °F - 50.0 °F 63% 30.10 in 10.0 mi SSW 17.3 mph - N/A   Unknown
1:55 PM 64.4 °F - 50.0 °F 59% 30.09 in 10.0 mi SSW 17.3 mph 21.9 mph N/A   Unknown
2:15 PM 64.4 °F - 50.0 °F 59% 30.09 in 10.0 mi SSW 17.3 mph 25.3 mph N/A   Unknown
2:35 PM 64.4 °F - 50.0 °F 59% 30.08 in 8.0 mi SSW 16.1 mph 24.2 mph N/A   Unknown
2:55 PM 64.4 °F - 50.0 °F 59% 30.08 in 9.0 mi SSW 16.1 mph - N/A   Unknown
3:15 PM 64.4 °F - 50.0 °F 59% 30.08 in 10.0 mi SSW 13.8 mph - N/A   Unknown
3:35 PM 64.4 °F - 50.0 °F 59% 30.08 in 9.0 mi SSW 10.4 mph - N/A   Unknown
3:55 PM 62.6 °F - 48.2 °F 59% 30.07 in 10.0 mi SSW 12.7 mph - N/A   Unknown
4:15 PM 62.6 °F - 48.2 °F 59% 30.07 in 10.0 mi SSW 16.1 mph - N/A   Unknown
4:35 PM 62.6 °F - 50.0 °F 63% 30.07 in 10.0 mi SSW 12.7 mph - N/A   Unknown
4:55 PM 59.0 °F - 50.0 °F 72% 30.07 in 10.0 mi SSW 10.4 mph - N/A   Unknown
5:15 PM 57.2 °F - 50.0 °F 77% 30.07 in 10.0 mi SSW 11.5 mph - N/A   Unknown
5:35 PM 57.2 °F - 48.2 °F 72% 30.07 in 10.0 mi SSW 8.1 mph - N/A   Unknown
5:55 PM 57.2 °F - 48.2 °F 72% 30.07 in 10.0 mi South 8.1 mph - N/A   Unknown
6:15 PM 57.2 °F - 48.2 °F 72% 30.07 in 10.0 mi South 8.1 mph - N/A   Unknown
6:35 PM 57.2 °F - 48.2 °F 72% 30.08 in 10.0 mi South 10.4 mph - N/A   Unknown
6:55 PM 55.4 °F - 48.2 °F 77% 30.08 in 10.0 mi South 9.2 mph - N/A   Unknown
7:15 PM 55.4 °F - 48.2 °F 77% 30.07 in 10.0 mi South 13.8 mph - N/A   Unknown
7:55 PM 57.2 °F - 48.2 °F 72% 30.06 in 10.0 mi SSW 12.7 mph - N/A   Unknown
8:35 PM 57.2 °F - 48.2 °F 72% 30.06 in 10.0 mi SSW 12.7 mph - N/A   Unknown
8:55 PM 57.2 °F - 48.2 °F 72% 30.08 in 10.0 mi SW 15.0 mph - N/A   Unknown
9:15 PM 57.2 °F - 48.2 °F 72% 30.10 in 10.0 mi WSW 5.8 mph - N/A   Unknown
9:35 PM 55.4 °F - 48.2 °F 77% 30.12 in 10.0 mi West 6.9 mph - N/A   Unknown
9:55 PM 55.4 °F - 48.2 °F 77% 30.12 in 10.0 mi WNW 4.6 mph - N/A   Unknown
10:15 PM 53.6 °F - 48.2 °F 82% 30.11 in 10.0 mi West 5.8 mph - N/A   Unknown
10:35 PM 55.4 °F - 48.2 °F 77% 30.11 in 10.0 mi WSW 6.9 mph - N/A   Unknown
10:55 PM 55.4 °F - 48.2 °F 77% 30.12 in 10.0 mi WSW 6.9 mph - N/A   Unknown
11:15 PM 55.4 °F - 48.2 °F 77% 30.12 in 10.0 mi WSW 5.8 mph - N/A   Unknown
11:55 PM 53.6 °F - 50.0 °F 88% 30.12 in 5.0 mi SSW 6.9 mph - 0.01 in Rain Light Rain